Flugplatz Gotha-Ost (EDEG)

Hier findest Du alle Informationen zum Flugplatz Gotha-Ost (EDEG).

Informationen für Piloten zum Flugplatz Gotha-Ost

Hier findest Du alle relevanten Informationen, die Du als Pilot benötigst, um Gotha-Ost anzufliegen.

Flugplatz: Gotha-Ost ICAO-Code: EDEG
Frequenz Turm: 122,500 Mhz GAFOR Gebiet: 24
Frequenz Ground: 122,500 Mhz Mogas: nein
Platzrunde: N 1800 ft Landegebühr: -
Platzhöhe: - Sunrise: 05:42 Uhr UTC
Pisten: 08/26 - 470 m x , GRAS Sunset: 16:22 Uhr UTC

Mitglieder, die in Gotha-Ost fliegen

Flugwetter am Flugplatz Gotha-Ost

Die METAR Information stammen aus EDDE (16.13 km entfernt).

METAR Code:
2021/10/11 07:50
EDDE 110750Z 25010KT 9999 BKN015 06/05 Q1024 BECMG BKN012

Temperatur: 4,2 °C Niederschlag: - Wind: 7,0 kt
Temperatur (min.): 2,7 °C Luftdruck: 1023 hPa Windrichtung: 200 °
Temperatur (max.): 5,8 °C Luftfeuchtigkeit: 94 % Bewölkung: 6/8

Flugschulen am Flugplatz Gotha-Ost

Am Flugplatz Gotha-Ost gibt es eine Flugschule.

Benachbarte Flugplätze und Flugschulen

Es gibt 14 weitere Flugplätze in einem Umkreis von 50 km um den Flugplatz Gotha-Ost.

Jetzt anmelden

Passwort vergessen

Umfrage Archiv

Wie habt Ihr Eure UL-Lizenz erworben?

Ausbildung als Fußgänger
67.2 %
Umschulung von Motorflug
16.4 %
Umschulung von Segelflug
14.8 %
Umschulung von Helikopter
1.6 %
Stimmen: 122 | Diskussion
Anzeige: Roland Aircraft
Statistik Alle Mitglieder

Aktuell sind 47 Besucher online.

Anzeige: VFR Sprechfunk Simulator Anzeige: Pocket FMS